MST,Max TemperatureF,Mean TemperatureF,Min TemperatureF,Max Dew PointF,MeanDew PointF,Min DewpointF,Max Humidity, Mean Humidity, Min Humidity, Max Sea Level PressureIn, Mean Sea Level PressureIn, Min Sea Level PressureIn, Max VisibilityMiles, Mean VisibilityMiles, Min VisibilityMiles, Max Wind SpeedMPH, Mean Wind SpeedMPH, Max Gust SpeedMPH,PrecipitationIn, CloudCover, Events, WindDirDegrees
2013-12-1,33,30,26,27,21,18,86,66,60,30.23,30.13,30.00,10,10,7,33,15,46,0.00,5,,210
2013-12-2,33,32,30,27,23,18,86,67,52,30.02,29.85,29.67,10,9,2,31,18,44,0.00,6,,212
2013-12-3,32,21,8,27,17,3,93,77,60,29.66,29.51,29.44,10,5,0,24,14,31,0.00,8,,279
2013-12-4,8,-10,-27,3,-12,-35,85,74,63,29.82,29.60,29.40,10,5,1,26,15,32,0.00,5,,346
2013-12-5,-9,-20,-32,-17,-30,-42,77,67,62,29.81,29.76,29.71,10,9,1,9,1,,0.00,0,,131
2013-12-6,3,-14,-31,-4,-21,-40,85,71,62,29.91,29.85,29.77,10,10,7,12,2,,0.00,5,,123
2013-12-7,17,9,1,9,3,-6,79,72,61,29.90,29.69,29.52,10,9,2,12,8,16,0.00,7,,156
2013-12-8,12,4,-5,5,-3,-13,85,70,48,29.80,29.65,29.48,10,9,2,18,7,25,0.00,6,,182
2013-12-9,5,-1,-7,-8,-11,-15,84,60,43,30.15,29.99,29.80,10,10,5,21,9,30,0.00,2,,190
2013-12-10,10,6,3,0,-4,-8,62,58,52,30.13,30.11,30.08,10,8,5,32,17,38,0.00,0,,177
2013-12-11,,,,,,,,,,,,,,,,,,,,,,
2013-12-12,,,,,,,,,,,,,,,,,,,,,,
2013-12-13,,,,,,,,,,,,,,,,,,,,,,
2013-12-14,,,,,,,,,,,,,,,,,,,,,,
2013-12-15,33,30,26,19,15,12,56,51,41,30.35,30.30,30.27,10,10,7,26,12,31,0.00,2,,197
2013-12-16,37,32,26,21,14,10,60,46,38,30.37,30.31,30.28,10,10,10,26,12,32,0.00,0,,234
2013-12-17,37,28,19,18,13,9,68,52,38,30.45,30.37,30.24,10,10,10,15,8,21,0.00,0,,152
2013-12-18,42,32,21,16,13,9,59,45,26,30.23,30.03,29.82,10,10,10,17,10,22,0.00,0,,159
2013-12-19,41,32,24,28,21,16,93,63,42,29.80,29.68,29.61,10,10,1,21,10,34,0.00,4,,190
2013-12-20,28,19,10,23,15,3,93,74,55,29.68,29.66,29.63,10,10,7,15,9,21,0.00,4,,202
2013-12-21,24,17,10,14,10,3,86,76,54,29.83,29.64,29.54,10,10,5,22,10,25,0.00,6,,196
2013-12-22,23,16,8,18,10,1,93,75,54,30.09,29.96,29.83,10,10,4,22,7,29,0.00,7,,197
2013-12-23,30,22,15,23,17,10,86,74,64,30.27,30.21,30.08,10,10,3,26,11,32,0.00,7,,196
2013-12-24,30,16,3,27,14,-4,86,71,51,30.32,30.20,30.08,10,8,0,34,14,40,0.00,5,,208
2013-12-25,24,12,1,7,2,-6,78,63,46,30.42,30.37,30.30,10,10,10,16,8,21,0.00,0,,153
2013-12-26,30,18,5,12,4,-4,73,57,43,30.40,30.36,30.34,10,10,7,13,7,17,0.00,0,,155
2013-12-27,24,14,3,14,7,-2,86,72,59,30.44,30.35,30.20,10,10,10,9,4,,0.00,0,,135
2013-12-28,32,16,1,19,12,-4,93,76,60,30.19,30.04,29.96,10,9,2,17,5,24,0.00,3,,50
2013-12-29,21,16,10,14,8,3,93,73,50,30.18,30.09,30.02,10,8,1,16,9,23,0.00,5,,197
2013-12-30,30,24,17,16,12,7,68,60,51,30.25,30.18,30.05,10,10,7,21,11,31,0.00,3,,194
2013-12-31,33,30,26,25,21,14,80,67,48,30.18,30.11,30.00,10,9,2,24,16,34,0.00,7,,201